Time;durP1;ratioP1;P1;durP2;ratioP2;P2;SDS_P1;SDS_P2;PMS_P1;PMS_P2;Temp;Humidity;BMP_temperature;BMP_pressure;BME280_temperature;BME280_humidity;BME280_pressure;Samples;Min_cycle;Max_cycle;Signal;HPM_P1;HPM_P2
2023/09/13 00:00:48;;;;;;;0.80;0.47;;;;;;;-143.84;80.35;45066.22;5088907;28;20448;-59
2023/09/13 00:03:16;;;;;;;0.83;0.40;;;;;;;-143.84;80.06;45049.06;5089072;28;20450;-59
2023/09/13 00:05:46;;;;;;;0.80;0.40;;;;;;;-143.84;79.97;45066.22;5088841;28;20440;-59
2023/09/13 00:08:13;;;;;;;0.90;0.50;;;;;;;-143.84;80.11;45062.41;5088956;28;20436;-59
2023/09/13 00:10:41;;;;;;;0.90;0.40;;;;;;;-143.84;80.29;45079.53;5089060;28;20442;-59
2023/09/13 00:13:08;;;;;;;0.90;0.60;;;;;;;-143.84;80.37;45064.31;5088833;28;20439;-59
2023/09/13 00:15:35;;;;;;;0.90;0.50;;;;;;;-143.84;80.52;45070.00;5088847;28;20497;-59
2023/09/13 00:18:02;;;;;;;0.90;0.40;;;;;;;-143.84;80.75;45081.44;5088645;28;20472;-59
2023/09/13 00:20:31;;;;;;;0.80;0.40;;;;;;;-143.84;81.17;45056.69;5088811;28;20432;-59
2023/09/13 00:22:58;;;;;;;0.90;0.40;;;;;;;-143.84;81.45;45090.97;5088937;28;20439;-59
2023/09/13 00:25:25;;;;;;;0.83;0.40;;;;;;;-143.84;81.83;45056.69;5088729;28;20489;-59
2023/09/13 00:27:52;;;;;;;1.57;1.07;;;;;;;-143.84;82.52;45073.81;5088793;28;20435;-59
2023/09/13 00:30:19;;;;;;;0.80;0.40;;;;;;;-143.84;82.67;45075.72;5088608;28;20451;-59
2023/09/13 00:32:46;;;;;;;0.90;0.50;;;;;;;-143.84;82.99;45068.13;5088497;28;20499;-59
2023/09/13 00:35:14;;;;;;;0.80;0.40;;;;;;;-143.84;83.14;45060.50;5088763;28;20485;-59
2023/09/13 00:37:42;;;;;;;0.80;0.40;;;;;;;-143.84;83.26;45068.13;5088833;28;20561;-59
2023/09/13 00:40:10;;;;;;;0.80;0.50;;;;;;;-143.84;83.21;45096.66;5088537;28;20572;-59
2023/09/13 00:42:37;;;;;;;0.80;0.40;;;;;;;-143.84;83.35;45073.81;5088778;28;20440;-59
2023/09/13 00:45:05;;;;;;;0.80;0.43;;;;;;;-143.84;83.55;45090.97;5088820;28;20504;-59
2023/09/13 00:47:32;;;;;;;0.80;0.40;;;;;;;-143.84;83.53;45062.41;5088611;28;20436;-59
2023/09/13 00:49:59;;;;;;;0.80;0.40;;;;;;;-143.84;83.52;45075.72;5088794;28;20443;-59
2023/09/13 00:52:27;;;;;;;0.90;0.60;;;;;;;-143.84;83.56;45068.13;5088405;28;20526;-59
2023/09/13 00:54:56;;;;;;;0.80;0.40;;;;;;;-143.84;83.36;45092.88;5088239;28;20428;-59
2023/09/13 00:57:23;;;;;;;0.83;0.40;;;;;;;-143.84;83.26;45085.25;5088932;28;20432;-59
2023/09/13 00:59:51;;;;;;;0.80;0.47;;;;;;;-143.84;82.92;45085.25;5088969;28;20549;-59
2023/09/13 01:02:18;;;;;;;0.90;0.40;;;;;;;-143.84;82.52;45102.38;5088672;28;20452;-59
2023/09/13 01:04:45;;;;;;;0.80;0.40;;;;;;;-143.84;82.45;45073.81;5090665;28;21241;-59
2023/09/13 01:07:13;;;;;;;0.80;0.30;;;;;;;-143.84;82.64;45104.28;5092157;28;20440;-59
2023/09/13 01:09:40;;;;;;;0.80;0.40;;;;;;;-143.84;82.39;45068.13;5091941;28;20440;-59
2023/09/13 01:12:09;;;;;;;0.80;0.40;;;;;;;-143.84;82.05;45075.72;5092568;28;20811;-59
2023/09/13 01:14:36;;;;;;;0.80;0.40;;;;;;;-143.84;81.74;45037.66;5092296;28;20443;-59
2023/09/13 01:17:12;;;;;;;0.80;0.40;;;;;;;-143.84;81.81;45094.78;5092100;28;20524;-59
2023/09/13 01:19:51;;;;;;;0.80;0.30;;;;;;;-143.84;81.87;45079.53;5091795;28;20580;-59
2023/09/13 01:22:56;;;;;;;0.80;0.40;;;;;;;-143.84;81.66;45071.91;5092021;28;20510;-59
2023/09/13 01:25:52;;;;;;;0.80;0.40;;;;;;;-143.84;81.49;45079.53;5091709;28;20440;-59
2023/09/13 01:28:41;;;;;;;0.90;0.60;;;;;;;-143.84;81.42;45083.34;5091147;28;20933;-59
2023/09/13 01:31:10;;;;;;;0.80;0.40;;;;;;;-143.84;81.49;45090.97;5091256;28;20879;-59
2023/09/13 01:33:37;;;;;;;0.80;0.40;;;;;;;-143.84;81.43;45064.31;5090935;28;20435;-59
2023/09/13 01:36:05;;;;;;;0.80;0.40;;;;;;;-143.84;81.42;45062.41;5090975;28;20432;-59
2023/09/13 01:38:33;;;;;;;0.80;0.40;;;;;;;-143.84;81.35;45054.78;5090736;28;20574;-59
2023/09/13 01:41:11;;;;;;;0.80;0.40;;;;;;;-143.84;81.36;45075.72;5091102;28;20451;-59
2023/09/13 01:43:42;;;;;;;0.80;0.40;;;;;;;-143.84;81.10;45064.31;5090923;28;20493;-59
2023/09/13 01:46:09;;;;;;;0.80;0.30;;;;;;;-143.84;81.25;45092.88;5091571;28;20798;-59
2023/09/13 01:48:38;;;;;;;0.90;0.70;;;;;;;-143.84;81.22;45062.41;5091518;28;20440;-59
2023/09/13 01:51:06;;;;;;;1.00;0.80;;;;;;;-143.84;81.59;45089.06;5091501;28;21166;-59
2023/09/13 01:53:33;;;;;;;0.80;0.40;;;;;;;-143.84;81.35;45100.47;5091485;28;20436;-59
2023/09/13 01:56:00;;;;;;;0.80;0.30;;;;;;;-143.84;81.36;45081.44;5091358;28;20440;-59
2023/09/13 01:58:27;;;;;;;0.90;0.60;;;;;;;-143.84;81.29;45083.34;5091259;28;20497;-59
2023/09/13 02:00:56;;;;;;;0.80;0.30;;;;;;;-143.84;81.24;45079.53;5091282;28;20517;-59
2023/09/13 02:03:23;;;;;;;0.80;0.40;;;;;;;-143.84;81.31;45110.00;5091190;28;20463;-59
2023/09/13 02:05:50;;;;;;;0.90;0.50;;;;;;;-143.84;81.11;45073.81;5091665;28;20444;-59
2023/09/13 02:08:17;;;;;;;0.80;0.40;;;;;;;-143.84;80.98;45083.34;5091213;28;20436;-59
2023/09/13 02:10:48;;;;;;;0.80;0.40;;;;;;;-143.84;80.89;45073.81;5091146;28;20494;-59
2023/09/13 02:13:15;;;;;;;0.90;0.60;;;;;;;-143.84;80.96;45096.66;5091184;28;20458;-59
2023/09/13 02:15:42;;;;;;;0.80;0.40;;;;;;;-143.84;80.81;45087.16;5091053;28;20928;-59
2023/09/13 02:18:11;;;;;;;0.90;0.60;;;;;;;-143.84;80.90;45075.72;5090792;28;20475;-59
2023/09/13 02:20:38;;;;;;;0.80;0.40;;;;;;;-143.84;80.62;45081.44;5091106;28;20871;-59
2023/09/13 02:23:05;;;;;;;0.90;0.57;;;;;;;-143.84;80.60;45094.78;5090721;28;20435;-56
2023/09/13 02:25:37;;;;;;;0.80;0.40;;;;;;;-143.84;80.56;45090.97;5090563;28;20439;-56
2023/09/13 02:28:05;;;;;;;1.00;0.40;;;;;;;-143.84;80.46;45098.56;5090492;28;20526;-56
2023/09/13 02:30:34;;;;;;;0.80;0.40;;;;;;;-143.84;80.47;45079.53;5090323;28;20444;-56
2023/09/13 02:33:02;;;;;;;0.80;0.30;;;;;;;-143.84;80.32;45087.16;5090931;28;20509;-56
2023/09/13 02:35:30;;;;;;;0.80;0.30;;;;;;;-143.84;80.49;45073.81;5090470;28;20501;-56
2023/09/13 02:37:58;;;;;;;0.80;0.50;;;;;;;-143.84;80.51;45075.72;5090586;28;20543;-56
2023/09/13 02:40:25;;;;;;;0.80;0.40;;;;;;;-143.84;80.47;45077.63;5090164;28;20483;-56
2023/09/13 02:42:52;;;;;;;0.80;0.40;;;;;;;-143.84;80.67;45047.16;5090179;28;20441;-56
2023/09/13 02:45:19;;;;;;;0.80;0.30;;;;;;;-143.84;80.87;45073.81;5089982;28;20493;-56
2023/09/13 02:47:47;;;;;;;2.20;0.60;;;;;;;-143.84;81.16;45089.06;5089939;28;20459;-56
2023/09/13 02:50:14;;;;;;;0.90;0.50;;;;;;;-143.84;81.10;45098.56;5090177;28;20478;-56
2023/09/13 02:52:42;;;;;;;1.10;0.53;;;;;;;-143.84;80.76;45077.63;5089971;28;20444;-56
2023/09/13 02:55:10;;;;;;;0.80;0.40;;;;;;;-143.84;80.89;45075.72;5089996;28;20452;-56
2023/09/13 02:57:37;;;;;;;0.80;0.40;;;;;;;-143.84;81.15;45075.72;5089909;28;20498;-56
2023/09/13 03:00:06;;;;;;;0.80;0.50;;;;;;;-143.84;81.33;45092.88;5089806;28;20479;-56
2023/09/13 03:02:33;;;;;;;0.80;0.40;;;;;;;-143.84;81.14;45092.88;5089779;28;20561;-56
2023/09/13 03:05:00;;;;;;;0.80;0.40;;;;;;;-143.84;80.93;45071.91;5089748;28;20451;-56
2023/09/13 03:07:27;;;;;;;0.80;0.40;;;;;;;-143.84;80.85;45083.34;5089704;28;20440;-56
2023/09/13 03:09:57;;;;;;;0.80;0.40;;;;;;;-143.84;80.74;45062.41;5089677;28;20443;-58
2023/09/13 03:12:24;;;;;;;0.80;0.40;;;;;;;-143.84;80.93;45087.16;5089518;28;20462;-58
2023/09/13 03:14:51;;;;;;;0.80;0.40;;;;;;;-143.84;81.03;45098.56;5089678;28;20846;-58
2023/09/13 03:17:18;;;;;;;0.80;0.30;;;;;;;-143.84;81.03;45090.97;5089136;28;20443;-58
2023/09/13 03:19:45;;;;;;;0.80;0.40;;;;;;;-143.84;81.37;45087.16;5089619;28;20976;-59
2023/09/13 03:22:13;;;;;;;1.40;0.80;;;;;;;-143.84;81.56;45096.66;5089858;28;20855;-59
2023/09/13 03:24:41;;;;;;;0.80;0.40;;;;;;;-143.84;81.70;45083.34;5089473;28;20452;-59
2023/09/13 03:27:10;;;;;;;0.80;0.30;;;;;;;-143.84;81.79;45098.56;5088216;28;20448;-59
2023/09/13 03:29:37;;;;;;;0.80;0.40;;;;;;;-143.84;82.00;45070.00;5089774;28;20451;-59
2023/09/13 03:32:06;;;;;;;0.80;0.30;;;;;;;-143.84;82.17;45070.00;5089464;28;20440;-59
2023/09/13 03:34:35;;;;;;;0.80;0.40;;;;;;;-143.84;82.41;45090.97;5089554;28;20428;-59
2023/09/13 03:37:02;;;;;;;0.80;0.40;;;;;;;-143.84;82.38;45081.44;5089540;28;20824;-59
2023/09/13 03:39:31;;;;;;;0.80;0.40;;;;;;;-143.84;82.55;45092.88;5086944;28;20492;-59
2023/09/13 03:41:58;;;;;;;1.07;0.47;;;;;;;-143.84;82.78;45089.06;5080135;28;20462;-59
2023/09/13 03:44:27;;;;;;;0.80;0.40;;;;;;;-143.84;82.81;45117.63;5069526;28;20455;-60
2023/09/13 03:46:55;;;;;;;0.80;0.30;;;;;;;-143.84;82.91;45110.00;5069539;28;20444;-59
2023/09/13 03:49:23;;;;;;;0.80;0.37;;;;;;;-143.84;83.01;45111.91;5069347;28;20945;-59
2023/09/13 03:51:50;;;;;;;0.80;0.30;;;;;;;-143.84;83.24;45071.91;5068759;28;20502;-59
2023/09/13 03:54:17;;;;;;;0.80;0.40;;;;;;;-143.84;83.14;45081.44;5069111;28;20514;-59
2023/09/13 03:56:44;;;;;;;0.90;0.67;;;;;;;-143.84;82.84;45102.38;5068577;28;20463;-60
2023/09/13 03:59:11;;;;;;;0.80;0.40;;;;;;;-143.84;81.81;45077.63;5068360;28;20433;-60
2023/09/13 04:01:40;;;;;;;0.80;0.37;;;;;;;-143.84;81.38;45075.72;5074332;28;21018;-60
2023/09/13 04:04:07;;;;;;;0.80;0.30;;;;;;;-143.84;81.24;45083.34;5084894;28;20455;-59
2023/09/13 04:06:34;;;;;;;0.80;0.30;;;;;;;-143.84;80.73;45071.91;5088779;28;20444;-59
2023/09/13 04:09:01;;;;;;;0.80;0.33;;;;;;;-143.84;80.62;45075.72;5088693;28;20497;-59
2023/09/13 04:11:28;;;;;;;0.80;0.40;;;;;;;-143.84;80.27;45073.81;5088375;28;20436;-59
2023/09/13 04:13:56;;;;;;;0.80;0.40;;;;;;;-143.84;80.15;45075.72;5088659;28;20956;-59
2023/09/13 04:16:23;;;;;;;0.80;0.40;;;;;;;-143.84;80.11;45085.25;5088621;28;20530;-59
2023/09/13 04:18:52;;;;;;;0.80;0.40;;;;;;;-143.84;80.08;45070.00;5088360;28;21022;-60
2023/09/13 04:21:19;;;;;;;0.80;0.40;;;;;;;-143.84;79.83;45070.00;5088575;28;20853;-60
2023/09/13 04:23:46;;;;;;;0.80;0.40;;;;;;;-143.84;79.74;45102.38;5088467;28;20436;-60
2023/09/13 04:26:20;;;;;;;1.03;0.50;;;;;;;-143.84;79.60;45085.25;5088403;28;20501;-60
2023/09/13 04:28:47;;;;;;;0.80;0.37;;;;;;;-143.84;79.42;45071.91;5088518;28;20486;-60
2023/09/13 04:31:14;;;;;;;0.80;0.30;;;;;;;-143.84;79.17;45077.63;5088540;28;20428;-60
2023/09/13 04:33:53;;;;;;;0.80;0.40;;;;;;;-143.84;78.74;45068.13;5088517;28;20513;-59
2023/09/13 04:36:20;;;;;;;0.80;0.30;;;;;;;-143.84;78.40;45085.25;5088412;28;20443;-60
2023/09/13 04:38:48;;;;;;;0.80;0.30;;;;;;;-143.84;78.57;45087.16;5088887;28;20451;-59
2023/09/13 04:41:16;;;;;;;0.80;0.40;;;;;;;-143.84;78.05;45045.25;5092521;28;20479;-60
2023/09/13 04:43:44;;;;;;;0.80;0.30;;;;;;;-143.84;77.89;45073.81;5092356;28;20489;-60
2023/09/13 04:46:11;;;;;;;0.80;0.40;;;;;;;-143.84;77.97;45075.72;5092713;28;20913;-59
2023/09/13 04:48:38;;;;;;;0.80;0.40;;;;;;;-143.84;76.83;45071.91;5092639;28;20500;-60
2023/09/13 04:51:06;;;;;;;0.80;0.40;;;;;;;-143.84;75.41;45060.50;5092485;28;20474;-60
2023/09/13 04:53:34;;;;;;;0.80;0.40;;;;;;;-143.84;72.88;45033.84;5092592;28;20440;-59
2023/09/13 04:56:01;;;;;;;0.80;0.40;;;;;;;-143.84;72.56;45071.91;5091994;28;20443;-59
2023/09/13 04:58:29;;;;;;;0.80;0.30;;;;;;;-143.84;70.37;45052.88;5092241;28;20444;-60
2023/09/13 05:00:56;;;;;;;0.80;0.30;;;;;;;-143.84;68.78;45068.13;5092272;28;20568;-60
2023/09/13 05:03:24;;;;;;;0.90;0.30;;;;;;;-143.84;67.47;45068.13;5092389;28;20443;-60
2023/09/13 05:05:51;;;;;;;0.90;0.40;;;;;;;-143.84;66.25;45039.53;5092442;28;20435;-60
2023/09/13 05:08:19;;;;;;;0.90;0.47;;;;;;;-143.84;64.58;45037.66;5092032;28;20503;-60
2023/09/13 05:10:46;;;;;;;0.90;0.30;;;;;;;-143.84;63.97;45039.53;5092039;28;20448;-59
2023/09/13 05:13:14;;;;;;;0.90;0.40;;;;;;;-143.84;62.46;45037.66;5092153;28;20428;-59
2023/09/13 05:15:45;;;;;;;1.07;0.43;;;;;;;-143.84;61.95;45045.25;5092112;28;20439;-59
2023/09/13 05:18:12;;;;;;;0.90;0.40;;;;;;;-143.84;60.44;45022.41;5091537;28;20483;-59
2023/09/13 05:20:40;;;;;;;0.90;0.30;;;;;;;-143.84;59.59;45024.31;5091814;28;20540;-59
2023/09/13 05:23:07;;;;;;;0.90;0.30;;;;;;;-143.84;58.16;45018.59;5091697;28;20501;-59
2023/09/13 05:25:36;;;;;;;0.90;0.30;;;;;;;-143.84;57.42;45012.88;5092167;28;20549;-59
2023/09/13 05:28:03;;;;;;;0.90;0.30;;;;;;;-143.84;56.03;45005.28;5091852;28;20451;-59
2023/09/13 05:30:33;;;;;;;0.90;0.50;;;;;;;-143.84;55.68;45014.78;5091727;28;20436;-59
2023/09/13 05:33:01;;;;;;;0.90;0.30;;;;;;;-143.84;53.32;45005.28;5091542;28;20831;-59
2023/09/13 05:35:32;;;;;;;0.90;0.30;;;;;;;-143.84;52.89;45035.75;5091549;28;20444;-59
2023/09/13 05:37:59;;;;;;;0.90;0.30;;;;;;;-143.84;52.81;44993.84;5091329;28;20444;-59
2023/09/13 05:40:29;;;;;;;0.90;0.37;;;;;;;-143.84;52.40;45014.78;5091403;28;20480;-59
2023/09/13 05:42:57;;;;;;;0.90;0.30;;;;;;;-143.84;51.68;45012.88;5091504;28;20472;-59
2023/09/13 05:45:25;;;;;;;0.90;0.30;;;;;;;-143.84;51.74;45014.78;5091235;28;20451;-59
2023/09/13 05:47:52;;;;;;;0.90;0.30;;;;;;;-143.84;51.36;45022.41;5091360;28;20436;-59
2023/09/13 05:50:19;;;;;;;0.90;0.37;;;;;;;-143.84;50.31;45037.66;5090706;28;20436;-59
2023/09/13 05:52:47;;;;;;;0.90;0.33;;;;;;;-143.84;50.02;45005.28;5091034;28;20440;-59
2023/09/13 05:55:14;;;;;;;0.90;0.30;;;;;;;-143.84;49.20;45028.13;5091193;28;20435;-59
2023/09/13 05:57:41;;;;;;;0.90;0.50;;;;;;;-143.84;48.54;45001.47;5091073;28;21022;-59
2023/09/13 06:00:12;;;;;;;0.90;0.30;;;;;;;-143.84;48.89;44990.03;5091239;28;20808;-59
2023/09/13 06:02:39;;;;;;;0.90;0.30;;;;;;;-143.84;49.08;45016.69;5091013;28;20436;-59
2023/09/13 06:05:09;;;;;;;0.90;0.30;;;;;;;-143.84;49.14;44993.84;5090545;28;20446;-59
2023/09/13 06:07:36;;;;;;;1.00;0.60;;;;;;;-143.84;48.40;44988.13;5090617;28;20448;-59
2023/09/13 06:10:03;;;;;;;0.90;0.30;;;;;;;-143.84;47.92;45010.97;5090724;28;20553;-59
2023/09/13 06:12:31;;;;;;;0.90;0.30;;;;;;;-143.84;48.03;45003.38;5090593;28;20448;-59
2023/09/13 06:14:59;;;;;;;0.90;0.40;;;;;;;-143.84;48.66;44988.13;5090529;28;20535;-59
2023/09/13 06:17:27;;;;;;;0.90;0.40;;;;;;;-143.84;48.63;44982.41;5090408;28;20483;-59
2023/09/13 06:19:54;;;;;;;0.90;0.30;;;;;;;-143.84;47.85;45003.38;5090795;28;20455;-59
2023/09/13 06:22:21;;;;;;;0.90;0.30;;;;;;;-143.84;48.05;45014.78;5090049;28;20432;-59
2023/09/13 06:24:50;;;;;;;0.97;0.60;;;;;;;-143.84;47.63;45003.38;5090688;28;20787;-59
2023/09/13 06:27:17;;;;;;;0.90;0.30;;;;;;;-143.84;48.52;44997.66;5090510;28;20447;-59
2023/09/13 06:29:44;;;;;;;0.90;0.40;;;;;;;-143.84;47.38;44990.03;5090255;28;20600;-59
2023/09/13 06:32:12;;;;;;;0.90;0.40;;;;;;;-143.84;47.17;44969.09;5089836;28;20473;-59
2023/09/13 06:34:40;;;;;;;0.90;0.40;;;;;;;-143.84;46.99;44988.13;5090342;28;20454;-59
2023/09/13 06:37:08;;;;;;;0.90;0.40;;;;;;;-143.84;47.68;44980.53;5090429;28;20440;-59
2023/09/13 06:39:35;;;;;;;0.90;0.40;;;;;;;-143.84;47.23;44999.56;5090537;28;20521;-59
2023/09/13 06:42:02;;;;;;;0.90;0.40;;;;;;;-143.84;47.01;45012.88;5090111;28;20563;-59
2023/09/13 06:44:29;;;;;;;0.90;0.30;;;;;;;-143.84;47.49;44978.63;5090220;28;20447;-59
2023/09/13 06:46:57;;;;;;;0.90;0.40;;;;;;;-143.84;48.59;44999.56;5085080;28;20456;-59
2023/09/13 06:49:24;;;;;;;0.90;0.30;;;;;;;-143.84;48.03;44976.72;5078965;28;20452;-59
2023/09/13 06:51:53;;;;;;;0.90;0.30;;;;;;;-143.84;47.38;45003.38;5069725;28;20469;-59
2023/09/13 06:54:20;;;;;;;0.90;0.30;;;;;;;-143.84;47.57;44976.72;5069671;28;20506;-59
2023/09/13 06:56:47;;;;;;;0.90;0.40;;;;;;;-143.84;46.20;44993.84;5069803;28;20796;-59
2023/09/13 06:59:14;;;;;;;0.90;0.30;;;;;;;-143.84;47.03;44982.41;5069622;28;20449;-59
2023/09/13 07:01:42;;;;;;;0.90;0.40;;;;;;;-143.84;47.02;45018.59;5068965;28;20485;-59
2023/09/13 07:04:09;;;;;;;1.60;0.83;;;;;;;-143.84;46.41;44974.81;5069541;28;20433;-59
2023/09/13 07:06:36;;;;;;;0.90;0.40;;;;;;;-143.84;47.50;44988.13;5069446;28;20445;-58
2023/09/13 07:09:05;;;;;;;0.90;0.40;;;;;;;-143.84;48.15;44967.19;5069480;28;20507;-59
2023/09/13 07:11:32;;;;;;;0.90;0.30;;;;;;;-143.84;48.02;44972.91;5069453;28;20460;-59
2023/09/13 07:13:59;;;;;;;0.90;0.40;;;;;;;-143.84;48.57;44984.31;5069310;28;20858;-59
2023/09/13 07:16:26;;;;;;;0.90;0.30;;;;;;;-143.84;47.38;44988.13;5069305;28;20523;-59
2023/09/13 07:18:55;;;;;;;0.90;0.40;;;;;;;-143.84;47.86;44986.22;5069005;28;20476;-59
2023/09/13 07:21:22;;;;;;;0.90;0.30;;;;;;;-143.84;48.77;44957.66;5069205;28;20583;-59
2023/09/13 07:23:51;;;;;;;0.90;0.40;;;;;;;-143.84;48.48;45003.38;5069505;28;20447;-59
2023/09/13 07:26:19;;;;;;;0.90;0.40;;;;;;;-143.84;48.51;45005.28;5069012;28;20859;-59
2023/09/13 07:28:46;;;;;;;0.90;0.30;;;;;;;-143.84;47.16;44988.13;5069610;28;20597;-61
2023/09/13 07:31:13;;;;;;;0.90;0.30;;;;;;;-143.84;47.01;44953.88;5069225;28;20441;-61
2023/09/13 07:33:40;;;;;;;0.90;0.30;;;;;;;-143.84;46.90;44972.91;5069164;28;20436;-61
2023/09/13 07:36:08;;;;;;;0.90;0.30;;;;;;;-143.84;47.77;44980.53;5069245;28;20460;-61
2023/09/13 07:38:37;;;;;;;0.90;0.30;;;;;;;-143.84;47.43;44978.63;5069321;28;20433;-61
2023/09/13 07:41:04;;;;;;;0.90;0.30;;;;;;;-143.84;46.78;44980.53;5068857;28;20932;-58
2023/09/13 07:43:33;;;;;;;0.90;0.30;;;;;;;-143.84;47.15;44959.56;5069124;28;20839;-58
2023/09/13 07:46:01;;;;;;;0.87;0.33;;;;;;;-143.84;47.16;44969.09;5068921;28;20448;-59
2023/09/13 07:48:28;;;;;;;0.90;0.40;;;;;;;-143.84;47.24;44997.66;5068842;28;20467;-58
2023/09/13 07:50:55;;;;;;;0.90;0.30;;;;;;;-143.84;48.15;45007.19;5068871;28;20433;-58
2023/09/13 07:53:23;;;;;;;0.90;0.30;;;;;;;-143.84;48.00;44991.94;5068851;28;20934;-58
2023/09/13 07:55:50;;;;;;;0.90;0.40;;;;;;;-143.84;49.37;44995.75;5069010;28;20444;-58
2023/09/13 07:58:17;;;;;;;0.90;0.30;;;;;;;-143.84;49.91;44988.13;5068718;28;20437;-58
2023/09/13 08:00:46;;;;;;;0.90;0.40;;;;;;;-143.84;48.11;45022.41;5068643;28;20472;-58
2023/09/13 08:03:13;;;;;;;0.90;0.40;;;;;;;-143.84;48.30;44984.31;5068585;28;20451;-60
2023/09/13 08:05:42;;;;;;;0.90;0.30;;;;;;;-143.84;49.24;44999.56;5068590;28;20498;-61
2023/09/13 08:08:09;;;;;;;0.90;0.40;;;;;;;-143.84;49.59;44976.72;5068670;28;20432;-56
2023/09/13 08:10:40;;;;;;;0.90;0.30;;;;;;;-143.84;48.34;44999.56;5068738;28;20550;-55
2023/09/13 08:13:07;;;;;;;0.90;0.40;;;;;;;-143.84;48.74;44988.13;5068775;28;20437;-55
2023/09/13 08:15:35;;;;;;;0.90;0.30;;;;;;;-143.84;48.66;44976.72;5068816;28;20441;-61
2023/09/13 08:18:04;;;;;;;0.90;0.30;;;;;;;-143.84;47.68;44991.94;5068126;28;21054;-58
2023/09/13 08:20:32;;;;;;;0.90;0.30;;;;;;;-143.84;47.41;44963.38;5068425;28;20528;-58
2023/09/13 08:22:59;;;;;;;0.90;0.30;;;;;;;-143.84;47.55;44991.94;5068524;28;20445;-56
2023/09/13 08:25:26;;;;;;;1.00;0.60;;;;;;;-143.84;48.23;45018.59;5068887;28;20817;-58
2023/09/13 08:27:54;;;;;;;1.00;0.40;;;;;;;-143.84;49.99;44993.84;5068582;28;20502;-61
2023/09/13 08:30:21;;;;;;;0.90;0.30;;;;;;;-143.84;48.02;44980.53;5068594;28;20494;-61
2023/09/13 08:32:48;;;;;;;0.90;0.30;;;;;;;-143.84;49.46;44980.53;5068307;28;20445;-59
2023/09/13 08:35:16;;;;;;;0.90;0.30;;;;;;;-143.84;48.06;44982.41;5068364;28;20440;-59
2023/09/13 08:37:44;;;;;;;0.90;0.30;;;;;;;-143.84;49.50;44990.03;5068452;28;20451;-59
2023/09/13 08:40:12;;;;;;;0.90;0.40;;;;;;;-143.84;51.18;45007.19;5068615;28;20510;-59
2023/09/13 08:42:41;;;;;;;0.90;0.40;;;;;;;-143.84;51.79;45049.06;5068409;28;21334;-56
2023/09/13 08:45:08;;;;;;;0.90;0.30;;;;;;;-143.84;48.71;44986.22;5068654;28;20544;-57
2023/09/13 08:47:38;;;;;;;0.90;0.30;;;;;;;-143.84;47.82;44986.22;5068063;28;20474;-57
2023/09/13 08:50:08;;;;;;;0.90;0.30;;;;;;;-143.84;48.15;45014.78;5068431;28;20453;-57
2023/09/13 08:52:37;;;;;;;0.90;0.30;;;;;;;-143.84;48.04;45001.47;5068381;28;20433;-57
2023/09/13 08:55:07;;;;;;;0.90;0.40;;;;;;;-143.84;47.76;45005.28;5068166;28;20483;-57
2023/09/13 08:57:35;;;;;;;0.90;0.40;;;;;;;-143.84;48.22;44993.84;5068379;28;20444;-57
2023/09/13 09:00:02;;;;;;;0.90;0.30;;;;;;;-143.84;47.66;45014.78;5068287;28;20445;-57
2023/09/13 09:02:33;;;;;;;0.90;0.30;;;;;;;-143.84;47.94;44988.13;5068071;28;20555;-57
2023/09/13 09:05:02;;;;;;;0.90;0.37;;;;;;;-143.84;48.81;45030.03;5067971;28;20433;-57
2023/09/13 09:07:29;;;;;;;0.90;0.50;;;;;;;-143.84;48.88;45003.38;5068304;28;20430;-57
2023/09/13 09:09:59;;;;;;;0.90;0.40;;;;;;;-143.84;49.84;45022.41;5068101;28;20452;-57
2023/09/13 09:12:28;;;;;;;0.90;0.30;;;;;;;-143.84;48.57;44997.66;5068082;28;20469;-57
2023/09/13 09:14:56;;;;;;;0.90;0.40;;;;;;;-143.84;47.78;44980.53;5067945;28;20432;-54
2023/09/13 09:17:26;;;;;;;0.90;0.50;;;;;;;-143.84;47.37;45001.47;5067860;28;20495;-54
2023/09/13 09:19:54;;;;;;;1.53;0.97;;;;;;;-143.84;48.03;45022.41;5068048;28;20503;-54
2023/09/13 09:22:22;;;;;;;0.90;0.40;;;;;;;-143.84;49.09;44993.84;5068076;28;20537;-54
2023/09/13 09:24:50;;;;;;;0.90;0.30;;;;;;;-143.84;48.13;45016.69;5068441;28;21135;-54
2023/09/13 09:27:18;;;;;;;1.10;0.70;;;;;;;-143.84;48.93;44969.09;5071304;28;20441;-54
2023/09/13 09:29:46;;;;;;;0.90;0.30;;;;;;;-143.84;48.77;45016.69;5071621;28;20860;-54
2023/09/13 09:32:14;;;;;;;0.90;0.40;;;;;;;-143.84;50.29;45003.38;5071342;28;20532;-54
2023/09/13 09:34:43;;;;;;;0.90;0.30;;;;;;;-143.84;49.28;45035.75;5071615;28;20440;-54
2023/09/13 09:37:11;;;;;;;0.90;0.40;;;;;;;-143.84;49.66;45016.69;5071190;28;20543;-54
2023/09/13 09:39:40;;;;;;;0.90;0.40;;;;;;;-143.84;50.16;45005.28;5075413;28;20444;-54
2023/09/13 09:42:07;;;;;;;0.90;0.40;;;;;;;-143.84;49.66;45018.59;5090227;28;20483;-54
2023/09/13 09:44:37;;;;;;;1.37;0.87;;;;;;;-143.84;48.60;45022.41;5090437;28;20466;-54
2023/09/13 09:47:04;;;;;;;0.90;0.30;;;;;;;-143.84;48.94;45001.47;5090895;28;20534;-54
2023/09/13 09:49:31;;;;;;;0.90;0.30;;;;;;;-143.84;49.77;45010.97;5091029;28;20443;-55
2023/09/13 09:51:59;;;;;;;0.90;0.30;;;;;;;-143.84;47.55;44986.22;5090356;28;20439;-55
2023/09/13 09:54:27;;;;;;;0.90;0.30;;;;;;;-143.84;49.11;44991.94;5089909;28;20432;-54
2023/09/13 09:56:54;;;;;;;1.00;0.70;;;;;;;-143.84;48.73;45005.28;5089880;28;20455;-55
2023/09/13 09:59:21;;;;;;;0.90;0.30;;;;;;;-143.84;49.31;45014.78;5089884;28;20466;-54
2023/09/13 10:01:58;;;;;;;0.90;0.30;;;;;;;-143.84;50.63;44986.22;5090227;28;20824;-55
2023/09/13 10:04:26;;;;;;;0.90;0.50;;;;;;;-143.84;49.40;45010.97;5090171;28;20455;-54
2023/09/13 10:06:59;;;;;;;0.90;0.30;;;;;;;-143.84;49.40;45007.19;5090412;28;20436;-54
2023/09/13 10:09:38;;;;;;;0.90;0.40;;;;;;;-143.84;48.48;44986.22;5091131;28;20440;-54
2023/09/13 10:12:07;;;;;;;0.90;0.30;;;;;;;-143.84;48.18;45001.47;5090906;28;20442;-54
2023/09/13 10:14:34;;;;;;;0.90;0.50;;;;;;;-143.84;48.84;44990.03;5090621;28;20443;-54
2023/09/13 10:17:04;;;;;;;1.10;0.60;;;;;;;-143.84;50.16;44995.75;5090743;28;20452;-56
2023/09/13 10:19:33;;;;;;;0.90;0.60;;;;;;;-143.84;49.11;45022.41;5090866;28;20436;-54
2023/09/13 10:22:00;;;;;;;0.90;0.40;;;;;;;-143.84;48.62;45010.97;5090519;28;20863;-55
2023/09/13 10:24:34;;;;;;;0.90;0.40;;;;;;;-143.84;48.88;44995.75;5090970;28;20497;-55
2023/09/13 10:27:05;;;;;;;0.90;0.40;;;;;;;-143.84;48.80;45020.50;5090533;28;20519;-54
2023/09/13 10:29:35;;;;;;;1.37;1.27;;;;;;;-143.84;49.42;45041.44;5090501;28;20443;-54
2023/09/13 10:32:08;;;;;;;0.90;0.30;;;;;;;-143.84;51.50;45010.97;5090618;28;20436;-54
2023/09/13 10:34:36;;;;;;;0.90;0.30;;;;;;;-143.84;50.16;45022.41;5090509;28;20791;-54
2023/09/13 10:37:10;;;;;;;0.90;0.30;;;;;;;-143.84;50.28;45022.41;5090709;28;20834;-54
2023/09/13 10:39:43;;;;;;;0.90;0.30;;;;;;;-143.84;50.72;45003.38;5090412;28;20448;-54
2023/09/13 10:42:11;;;;;;;0.90;0.40;;;;;;;-143.84;52.44;45016.69;5090187;28;20649;-54
2023/09/13 10:44:39;;;;;;;0.90;0.40;;;;;;;-143.84;49.71;45003.38;5090242;28;20436;-54
2023/09/13 10:47:09;;;;;;;0.90;0.30;;;;;;;-143.84;51.80;44995.75;5090116;28;20439;-54
2023/09/13 10:49:38;;;;;;;0.90;0.30;;;;;;;-143.84;51.25;45014.78;5090082;28;20444;-54
2023/09/13 10:52:06;;;;;;;0.90;0.30;;;;;;;-143.84;52.44;45026.22;5090225;28;20440;-54
2023/09/13 10:54:34;;;;;;;0.90;0.40;;;;;;;-143.84;53.74;45018.59;5090307;28;20424;-54
2023/09/13 10:57:03;;;;;;;0.90;0.40;;;;;;;-143.84;52.50;44999.56;5090127;28;20439;-54
2023/09/13 10:59:31;;;;;;;0.90;0.30;;;;;;;-143.84;52.25;44980.53;5090277;28;20548;-54
2023/09/13 11:01:58;;;;;;;0.90;0.40;;;;;;;-143.84;53.21;45041.44;5090120;28;20550;-54
2023/09/13 11:04:28;;;;;;;0.90;0.30;;;;;;;-143.84;52.77;45020.50;5089844;28;20451;-54
2023/09/13 11:06:57;;;;;;;0.90;0.43;;;;;;;-143.84;53.97;44999.56;5090091;28;20524;-54
2023/09/13 11:09:30;;;;;;;0.90;0.40;;;;;;;-143.84;52.29;44995.75;5089823;28;20537;-54
2023/09/13 11:11:58;;;;;;;0.90;0.40;;;;;;;-143.84;53.28;45014.78;5089817;28;20530;-54
2023/09/13 11:14:27;;;;;;;0.90;0.40;;;;;;;-143.84;52.70;44997.66;5089833;28;20436;-54
2023/09/13 11:16:54;;;;;;;0.90;0.33;;;;;;;-143.84;51.44;45014.78;5089645;28;20466;-54
2023/09/13 11:19:29;;;;;;;0.90;0.40;;;;;;;-143.84;49.45;45009.09;5089485;28;20479;-54
2023/09/13 11:22:00;;;;;;;0.90;0.40;;;;;;;-143.84;50.88;45018.59;5089544;28;20558;-54